createdAt,value
2023-03-24T00:00:12.752Z,11.60
2023-03-24T00:03:17.722Z,11.58
2023-03-24T00:06:23.792Z,11.53
2023-03-24T00:09:26.543Z,11.46
2023-03-24T00:12:29.281Z,11.41
2023-03-24T00:15:32.114Z,11.47
2023-03-24T00:18:35.505Z,11.47
2023-03-24T00:21:38.106Z,11.37
2023-03-24T00:24:46.575Z,11.47
2023-03-24T00:27:49.750Z,11.46
2023-03-24T00:30:52.437Z,11.46
2023-03-24T00:33:55.636Z,11.39
2023-03-24T00:36:58.430Z,11.33
2023-03-24T00:40:01.209Z,11.23
2023-03-24T00:43:04.748Z,11.22
2023-03-24T00:46:11.973Z,11.25
2023-03-24T00:49:15.996Z,11.24
2023-03-24T00:52:25.337Z,11.18
2023-03-24T00:55:29.020Z,11.14
2023-03-24T00:58:34.761Z,11.15
2023-03-24T01:01:39.250Z,11.15
2023-03-24T01:04:46.619Z,11.06
2023-03-24T01:07:52.510Z,11.05
2023-03-24T01:10:55.765Z,11.05
2023-03-24T01:13:59.118Z,11.01
2023-03-24T01:17:02.052Z,10.93
2023-03-24T01:20:08.488Z,10.90
2023-03-24T01:23:14.586Z,10.82
2023-03-24T01:26:17.323Z,10.74
2023-03-24T01:29:20.275Z,10.69
2023-03-24T01:32:23.753Z,10.74
2023-03-24T01:35:31.199Z,10.75
2023-03-24T01:38:34.473Z,10.53
2023-03-24T01:41:41.094Z,10.36
2023-03-24T01:44:52.187Z,10.41
2023-03-24T01:47:56.359Z,10.50
2023-03-24T01:51:03.548Z,10.57
2023-03-24T01:54:15.430Z,10.50
2023-03-24T01:57:24.838Z,10.50
2023-03-24T02:00:27.938Z,10.54
2023-03-24T02:03:59.344Z,10.59
2023-03-24T02:07:09.373Z,10.60
2023-03-24T02:10:15.665Z,10.50
2023-03-24T02:13:18.408Z,10.35
2023-03-24T02:16:41.317Z,10.30
2023-03-24T02:20:13.869Z,10.35
2023-03-24T02:23:48.559Z,10.39
2023-03-24T02:27:00.156Z,10.40
2023-03-24T02:30:30.015Z,10.47
2023-03-24T02:33:51.469Z,10.39
2023-03-24T02:37:00.669Z,10.38
2023-03-24T02:40:12.653Z,10.42
2023-03-24T02:43:15.306Z,10.44
2023-03-24T02:46:24.296Z,10.40
2023-03-24T02:49:54.533Z,10.50
2023-03-24T02:53:16.926Z,10.50
2023-03-24T02:56:44.841Z,10.52
2023-03-24T03:00:23.800Z,10.53
2023-03-24T03:03:47.127Z,10.64
2023-03-24T03:06:54.408Z,10.72
2023-03-24T03:10:16.714Z,10.79
2023-03-24T03:13:32.910Z,10.84
2023-03-24T03:16:45.984Z,10.80
2023-03-24T03:19:55.823Z,10.82
2023-03-24T03:23:06.068Z,10.82
2023-03-24T03:26:13.355Z,10.78
2023-03-24T03:29:22.769Z,10.74
2023-03-24T03:32:28.933Z,10.82
2023-03-24T03:35:39.036Z,10.84
2023-03-24T03:39:11.253Z,10.84
2023-03-24T03:42:13.966Z,10.82
2023-03-24T03:45:16.821Z,10.85
2023-03-24T03:48:19.760Z,10.81
2023-03-24T03:51:22.478Z,10.81
2023-03-24T03:54:31.262Z,10.83
2023-03-24T03:57:35.045Z,10.78
2023-03-24T04:00:47.889Z,10.82
2023-03-24T04:04:26.430Z,10.72
2023-03-24T04:08:19.192Z,10.69
2023-03-24T04:12:05.157Z,10.67
2023-03-24T04:15:36.454Z,10.67
2023-03-24T04:19:05.711Z,10.64
2023-03-24T04:22:25.588Z,10.62
2023-03-24T04:25:50.385Z,10.63
2023-03-24T04:29:33.632Z,10.67
2023-03-24T04:33:00.927Z,10.70
2023-03-24T04:36:17.276Z,10.70
2023-03-24T04:39:43.175Z,10.72
2023-03-24T04:42:52.918Z,10.64
2023-03-24T04:45:59.498Z,10.61
2023-03-24T04:49:15.145Z,10.64
2023-03-24T04:52:19.766Z,10.75
2023-03-24T04:55:50.506Z,10.70
2023-03-24T04:59:14.054Z,10.71
2023-03-24T05:02:19.481Z,10.72
2023-03-24T05:05:49.313Z,10.70
2023-03-24T05:08:52.933Z,10.65
2023-03-24T05:11:56.116Z,10.55
2023-03-24T05:14:59.938Z,10.64
2023-03-24T05:18:04.165Z,10.61
2023-03-24T05:21:07.274Z,10.67
2023-03-24T05:24:12.899Z,10.63
2023-03-24T05:27:16.885Z,10.62
2023-03-24T05:30:20.886Z,10.65
2023-03-24T05:33:26.839Z,10.70
2023-03-24T05:36:31.714Z,10.77
2023-03-24T05:39:35.649Z,10.82
2023-03-24T05:42:43.692Z,10.89
2023-03-24T05:45:48.527Z,10.95
2023-03-24T05:49:02.108Z,10.99
2023-03-24T05:52:10.527Z,11.10
2023-03-24T05:55:16.380Z,11.15
2023-03-24T05:58:21.590Z,11.23
2023-03-24T06:01:26.555Z,11.32
2023-03-24T06:04:36.624Z,11.40
2023-03-24T06:07:46.343Z,11.51
2023-03-24T06:10:49.905Z,11.54
2023-03-24T06:13:52.977Z,11.62
2023-03-24T06:16:59.883Z,11.70
2023-03-24T06:20:06.531Z,11.80
2023-03-24T06:23:26.160Z,11.87
2023-03-24T06:26:37.204Z,11.90
2023-03-24T06:29:42.786Z,11.91
2023-03-24T06:32:47.132Z,12.02
2023-03-24T06:35:51.473Z,12.09
2023-03-24T06:38:55.021Z,11.94
2023-03-24T06:41:57.899Z,11.98
2023-03-24T06:45:01.114Z,12.06
2023-03-24T06:48:04.140Z,12.05
2023-03-24T06:51:07.397Z,12.00
2023-03-24T06:54:10.927Z,12.17
2023-03-24T06:57:13.835Z,12.28
2023-03-24T07:00:37.349Z,12.27
2023-03-24T07:04:00.267Z,12.27
2023-03-24T07:08:00.727Z,12.38
2023-03-24T07:11:07.934Z,12.21
2023-03-24T07:14:11.237Z,12.39
2023-03-24T07:17:15.286Z,12.39
2023-03-24T07:20:47.157Z,12.40
2023-03-24T07:23:52.649Z,12.49
2023-03-24T07:26:57.968Z,12.85
2023-03-24T07:30:02.264Z,12.97
2023-03-24T07:33:14.565Z,13.40
2023-03-24T07:36:20.724Z,13.47
2023-03-24T07:39:23.760Z,13.76
2023-03-24T07:42:26.765Z,13.72
2023-03-24T07:45:49.899Z,13.89
2023-03-24T07:48:52.794Z,13.63
2023-03-24T07:51:56.132Z,13.56
2023-03-24T07:55:12.325Z,13.50
2023-03-24T07:58:32.169Z,13.52
2023-03-24T08:01:58.439Z,13.47
2023-03-24T08:05:15.544Z,13.41
2023-03-24T08:08:18.153Z,13.47
2023-03-24T08:11:20.917Z,13.46
2023-03-24T08:14:25.826Z,13.35
2023-03-24T08:17:28.980Z,13.66
2023-03-24T08:20:32.068Z,13.80
2023-03-24T08:23:37.084Z,14.05
2023-03-24T08:26:40.404Z,14.02
2023-03-24T08:29:44.053Z,14.09
2023-03-24T08:32:48.962Z,14.46
2023-03-24T08:35:52.904Z,14.31
2023-03-24T08:38:56.424Z,14.85
2023-03-24T08:41:59.194Z,14.87
2023-03-24T08:45:01.900Z,14.90
2023-03-24T08:48:06.486Z,14.88
2023-03-24T08:51:14.256Z,14.87
2023-03-24T08:54:17.021Z,14.91
2023-03-24T08:57:19.724Z,15.22
2023-03-24T09:00:23.059Z,15.22
2023-03-24T09:03:26.569Z,15.37
2023-03-24T09:06:29.432Z,15.17
2023-03-24T09:09:33.886Z,15.20
2023-03-24T09:12:37.622Z,15.17
2023-03-24T09:15:40.503Z,15.47
2023-03-24T09:18:43.311Z,15.77
2023-03-24T09:21:48.107Z,16.08
2023-03-24T09:24:51.101Z,16.05
2023-03-24T09:27:53.961Z,16.16
2023-03-24T09:30:58.377Z,16.30
2023-03-24T09:34:04.109Z,16.36
2023-03-24T09:37:07.210Z,16.45
2023-03-24T09:40:27.092Z,16.46
2023-03-24T09:43:29.725Z,16.58
2023-03-24T09:46:36.427Z,16.72
2023-03-24T09:49:41.703Z,16.77
2023-03-24T09:52:45.939Z,16.84
2023-03-24T09:55:49.293Z,16.71
2023-03-24T09:59:19.822Z,16.98
2023-03-24T10:02:23.239Z,16.87
2023-03-24T10:05:39.229Z,17.04
2023-03-24T10:08:44.757Z,17.20
2023-03-24T10:12:24.969Z,17.19
2023-03-24T10:15:37.844Z,17.42
2023-03-24T10:18:46.338Z,17.59
2023-03-24T10:22:06.575Z,17.35
2023-03-24T10:25:21.903Z,17.02
2023-03-24T10:28:28.716Z,17.04
2023-03-24T10:31:31.956Z,17.11
2023-03-24T10:34:35.071Z,17.69
2023-03-24T10:37:37.894Z,17.70
2023-03-24T10:40:41.653Z,18.00
2023-03-24T10:43:45.898Z,18.28
2023-03-24T10:46:52.005Z,18.38
2023-03-24T10:49:58.957Z,18.55
2023-03-24T10:53:09.258Z,18.80
2023-03-24T10:56:16.777Z,19.07
2023-03-24T10:59:27.723Z,19.17
2023-03-24T11:02:32.652Z,19.37
2023-03-24T11:05:37.960Z,19.34
2023-03-24T11:08:42.270Z,19.02
2023-03-24T11:11:45.077Z,19.45
2023-03-24T11:14:47.824Z,19.71
2023-03-24T11:18:18.529Z,19.28
2023-03-24T11:21:21.595Z,19.33
2023-03-24T11:24:24.754Z,19.35
2023-03-24T11:27:27.783Z,19.27
2023-03-24T11:30:34.985Z,19.26
2023-03-24T11:33:48.399Z,19.31
2023-03-24T11:36:55.217Z,19.32
2023-03-24T11:40:13.278Z,18.91
2023-03-24T11:43:21.549Z,19.39
2023-03-24T11:46:26.886Z,19.33
2023-03-24T11:49:32.428Z,19.27
2023-03-24T11:52:40.915Z,19.45
2023-03-24T11:55:50.031Z,19.63
2023-03-24T11:59:31.807Z,19.35
2023-03-24T12:02:46.994Z,19.63
2023-03-24T12:06:08.353Z,19.49
2023-03-24T12:09:32.772Z,19.07
2023-03-24T12:13:22.066Z,19.52
2023-03-24T12:16:44.972Z,19.49
2023-03-24T12:20:15.770Z,19.54
2023-03-24T12:23:33.165Z,19.31
2023-03-24T12:26:36.274Z,19.15
2023-03-24T12:29:51.337Z,19.16
2023-03-24T12:33:04.031Z,18.81
2023-03-24T12:36:37.473Z,19.26
2023-03-24T12:40:10.537Z,19.35
2023-03-24T12:43:22.449Z,19.14
2023-03-24T12:50:12.590Z,18.82
2023-03-24T12:53:33.485Z,18.72
2023-03-24T12:56:43.809Z,18.67
2023-03-24T12:59:57.963Z,18.45
2023-03-24T13:03:56.540Z,18.47
2023-03-24T13:07:06.127Z,18.61
2023-03-24T13:10:16.867Z,18.66
2023-03-24T13:13:24.359Z,18.37
2023-03-24T13:16:31.225Z,18.44
2023-03-24T13:19:35.165Z,18.07
2023-03-24T13:22:38.242Z,18.06
2023-03-24T13:25:54.652Z,17.98
2023-03-24T13:29:03.485Z,17.99
2023-03-24T13:32:17.857Z,17.88
2023-03-24T13:35:52.298Z,17.98
2023-03-24T13:38:58.643Z,17.93
2023-03-24T13:42:01.936Z,17.93
2023-03-24T13:45:07.087Z,18.01
2023-03-24T13:48:09.756Z,17.91
2023-03-24T13:51:32.034Z,17.74
2023-03-24T13:54:38.050Z,17.79
2023-03-24T13:57:42.561Z,17.88
2023-03-24T14:01:05.047Z,17.86
2023-03-24T14:04:20.208Z,17.84
2023-03-24T14:07:35.186Z,17.90
2023-03-24T14:10:42.550Z,17.94
2023-03-24T14:13:49.591Z,17.95
2023-03-24T14:17:04.762Z,17.96
2023-03-24T14:20:10.941Z,18.06
2023-03-24T14:23:35.871Z,18.13
2023-03-24T14:26:38.809Z,18.28
2023-03-24T14:30:04.376Z,18.23
2023-03-24T14:33:24.494Z,18.25
2023-03-24T14:36:40.061Z,18.17
2023-03-24T14:39:47.541Z,18.18
2023-03-24T14:42:52.718Z,18.28
2023-03-24T14:46:00.941Z,18.08
2023-03-24T14:49:29.723Z,18.23
2023-03-24T14:52:40.976Z,18.18
2023-03-24T14:55:44.424Z,18.19
2023-03-24T14:58:49.597Z,18.20
2023-03-24T15:01:59.219Z,18.18
2023-03-24T15:05:23.656Z,18.10
2023-03-24T15:08:28.314Z,18.10
2023-03-24T15:11:34.080Z,17.91
2023-03-24T15:14:37.250Z,17.85
2023-03-24T15:17:42.991Z,17.76
2023-03-24T15:20:46.522Z,17.73
2023-03-24T15:23:49.861Z,17.57
2023-03-24T15:27:18.281Z,17.44
2023-03-24T15:30:21.831Z,17.34
2023-03-24T15:33:26.362Z,17.23
2023-03-24T15:36:35.200Z,17.20
2023-03-24T15:39:39.611Z,17.16
2023-03-24T15:42:44.915Z,17.18
2023-03-24T15:46:04.638Z,17.20
2023-03-24T15:49:21.282Z,17.05
2023-03-24T15:52:38.424Z,17.02
2023-03-24T15:55:43.870Z,17.04
2023-03-24T15:59:17.837Z,17.01
2023-03-24T16:02:39.696Z,16.88
2023-03-24T16:05:48.828Z,16.88
2023-03-24T16:08:51.874Z,16.84
2023-03-24T16:11:54.939Z,16.86
2023-03-24T16:14:57.814Z,16.84
2023-03-24T16:18:00.689Z,16.77
2023-03-24T16:21:21.418Z,16.65
2023-03-24T16:24:25.073Z,16.55
2023-03-24T16:27:29.984Z,16.28
2023-03-24T16:30:38.333Z,16.15
2023-03-24T16:33:41.096Z,16.08
2023-03-24T16:36:44.237Z,16.03
2023-03-24T16:39:46.954Z,15.98
2023-03-24T16:42:50.052Z,16.00
2023-03-24T16:45:53.314Z,16.04
2023-03-24T16:48:56.482Z,15.93
2023-03-24T16:52:02.606Z,15.65
2023-03-24T16:55:06.746Z,15.58
2023-03-24T16:58:11.436Z,15.62
2023-03-24T17:01:27.702Z,15.64
2023-03-24T17:04:34.315Z,15.53
2023-03-24T17:07:37.338Z,15.40
2023-03-24T17:10:42.067Z,15.39
2023-03-24T17:13:44.966Z,15.32
2023-03-24T17:16:49.487Z,15.18
2023-03-24T17:19:52.548Z,15.16
2023-03-24T17:22:57.230Z,15.16
2023-03-24T17:25:59.926Z,15.14
2023-03-24T17:29:04.641Z,15.08
2023-03-24T17:32:07.481Z,15.06
2023-03-24T17:35:15.865Z,14.87
2023-03-24T17:38:19.122Z,14.85
2023-03-24T17:41:22.197Z,14.87
2023-03-24T17:44:25.112Z,14.92
2023-03-24T17:47:27.983Z,14.55
2023-03-24T17:50:31.161Z,14.44
2023-03-24T17:53:34.152Z,14.17
2023-03-24T17:56:37.450Z,14.12
2023-03-24T17:59:40.239Z,13.66
2023-03-24T18:02:44.292Z,13.77
2023-03-24T18:05:47.088Z,13.38
2023-03-24T18:08:52.970Z,13.44
2023-03-24T18:11:56.592Z,13.33
2023-03-24T18:14:59.366Z,13.16
2023-03-24T18:18:07.568Z,13.19
2023-03-24T18:21:10.943Z,13.23
2023-03-24T18:24:13.863Z,13.28
2023-03-24T18:27:17.096Z,13.25
2023-03-24T18:30:23.105Z,13.03
2023-03-24T18:33:26.108Z,13.13
2023-03-24T18:36:32.310Z,13.13
2023-03-24T18:39:35.566Z,13.13
2023-03-24T18:42:38.895Z,12.89
2023-03-24T18:45:41.995Z,12.85
2023-03-24T18:48:45.522Z,12.72
2023-03-24T18:51:50.227Z,12.77
2023-03-24T18:54:54.552Z,12.79
2023-03-24T18:57:57.392Z,12.68
2023-03-24T19:01:07.776Z,12.61
2023-03-24T19:04:13.874Z,12.64
2023-03-24T19:07:24.656Z,12.60
2023-03-24T19:10:28.937Z,12.58
2023-03-24T19:13:32.171Z,12.68
2023-03-24T19:16:35.393Z,12.76
2023-03-24T19:19:38.844Z,12.84
2023-03-24T19:22:45.104Z,12.85
2023-03-24T19:25:55.384Z,12.98
2023-03-24T19:29:01.326Z,13.11
2023-03-24T19:32:04.567Z,13.07
2023-03-24T19:35:08.847Z,13.05
2023-03-24T19:38:11.739Z,13.05
2023-03-24T19:41:18.182Z,12.97
2023-03-24T19:44:23.095Z,12.97
2023-03-24T19:47:26.071Z,13.01
2023-03-24T19:50:28.898Z,12.98
2023-03-24T19:53:31.991Z,13.02
2023-03-24T19:56:34.824Z,12.91
2023-03-24T19:59:37.641Z,12.89
2023-03-24T20:02:41.732Z,13.02
2023-03-24T20:05:46.211Z,12.94
2023-03-24T20:08:49.244Z,12.93
2023-03-24T20:11:53.661Z,12.77
2023-03-24T20:14:56.708Z,12.75
2023-03-24T20:18:00.183Z,12.83
2023-03-24T20:21:07.506Z,12.89
2023-03-24T20:24:15.300Z,12.86
2023-03-24T20:27:19.167Z,12.79
2023-03-24T20:30:22.730Z,12.83
2023-03-24T20:33:30.200Z,12.82
2023-03-24T20:36:33.656Z,12.79
2023-03-24T20:39:38.379Z,12.68
2023-03-24T20:42:42.517Z,12.65
2023-03-24T20:45:48.505Z,12.67
2023-03-24T20:48:51.756Z,12.60
2023-03-24T20:51:55.216Z,12.39
2023-03-24T20:54:57.963Z,12.36
2023-03-24T20:58:02.578Z,12.35
2023-03-24T21:01:09.858Z,12.33
2023-03-24T21:04:13.193Z,12.18
2023-03-24T21:07:16.171Z,12.12
2023-03-24T21:10:20.217Z,12.12
2023-03-24T21:13:24.020Z,12.09
2023-03-24T21:16:34.125Z,12.10
2023-03-24T21:19:39.431Z,12.06
2023-03-24T21:22:53.991Z,11.98
2023-03-24T21:25:57.316Z,11.94
2023-03-24T21:29:01.643Z,11.89
2023-03-24T21:32:04.500Z,11.72
2023-03-24T21:35:09.669Z,11.66
2023-03-24T21:38:13.366Z,11.60
2023-03-24T21:41:17.791Z,11.60
2023-03-24T21:44:20.763Z,11.62
2023-03-24T21:47:26.037Z,11.53
2023-03-24T21:50:29.350Z,11.52
2023-03-24T21:53:32.296Z,11.48
2023-03-24T21:56:35.732Z,11.52
2023-03-24T21:59:41.366Z,11.48
2023-03-24T22:02:46.792Z,11.45
2023-03-24T22:05:49.695Z,11.45
2023-03-24T22:08:53.474Z,11.43
2023-03-24T22:11:59.255Z,11.52
2023-03-24T22:15:02.245Z,11.51
2023-03-24T22:18:06.412Z,11.46
2023-03-24T22:21:10.842Z,11.47
2023-03-24T22:24:13.858Z,11.39
2023-03-24T22:27:18.030Z,11.31
2023-03-24T22:30:24.619Z,11.33
2023-03-24T22:33:30.416Z,11.38
2023-03-24T22:36:33.155Z,11.36
2023-03-24T22:39:36.367Z,11.33
2023-03-24T22:42:39.472Z,11.28
2023-03-24T22:45:46.266Z,11.14
2023-03-24T22:48:49.661Z,11.16
2023-03-24T22:51:59.243Z,11.15
2023-03-24T22:55:02.255Z,11.16
2023-03-24T22:58:06.178Z,11.22
2023-03-24T23:01:09.811Z,11.13
2023-03-24T23:04:12.820Z,11.22
2023-03-24T23:07:16.576Z,11.18
2023-03-24T23:10:22.752Z,11.17
2023-03-24T23:13:26.712Z,11.15
2023-03-24T23:16:30.158Z,11.17
2023-03-24T23:19:34.636Z,11.11
2023-03-24T23:22:39.225Z,11.11
2023-03-24T23:25:43.942Z,11.21
2023-03-24T23:28:47.808Z,11.34
2023-03-24T23:31:50.881Z,11.20
2023-03-24T23:34:53.876Z,11.15
2023-03-24T23:37:56.815Z,11.04
2023-03-24T23:41:01.196Z,10.81
2023-03-24T23:44:03.899Z,10.91
2023-03-24T23:47:07.651Z,10.90
2023-03-24T23:50:11.740Z,10.93
2023-03-24T23:53:18.340Z,10.85
2023-03-24T23:56:21.873Z,10.85
2023-03-24T23:59:28.331Z,11.00
